createdAt,value
2023-05-19T00:00:15.720Z,5.70
2023-05-19T00:05:20.824Z,6.88
2023-05-19T00:10:24.311Z,8.68
2023-05-19T00:15:27.603Z,6.80
2023-05-19T00:20:31.798Z,8.60
2023-05-19T00:25:34.709Z,12.88
2023-05-19T00:30:37.405Z,11.27
2023-05-19T00:35:41.528Z,7.38
2023-05-19T00:40:44.487Z,10.07
2023-05-19T00:45:47.347Z,6.00
2023-05-19T00:50:51.874Z,6.88
2023-05-19T00:55:54.716Z,7.95
2023-05-19T01:01:04.114Z,5.10
2023-05-19T01:06:09.068Z,7.15
2023-05-19T01:11:11.744Z,7.23
2023-05-19T01:16:22.278Z,5.57
2023-05-19T01:21:58.369Z,6.28
2023-05-19T01:27:22.570Z,5.50
2023-05-19T01:32:27.264Z,7.63
2023-05-19T01:37:30.838Z,5.32
2023-05-19T01:42:37.827Z,6.63
2023-05-19T01:47:48.382Z,6.57
2023-05-19T01:52:51.839Z,6.23
2023-05-19T01:58:03.481Z,3.93
2023-05-19T02:03:24.796Z,7.67
2023-05-19T02:08:34.784Z,7.00
2023-05-19T02:13:42.174Z,6.10
2023-05-19T02:18:48.058Z,4.60
2023-05-19T02:23:54.271Z,5.90
2023-05-19T02:29:04.094Z,5.73
2023-05-19T02:34:08.658Z,6.17
2023-05-19T02:39:12.255Z,4.93
2023-05-19T02:44:15.012Z,6.27
2023-05-19T02:49:19.016Z,8.47
2023-05-19T02:54:21.775Z,8.93
2023-05-19T02:59:25.693Z,6.00
2023-05-19T03:04:30.377Z,7.17
2023-05-19T03:09:33.081Z,4.40
2023-05-19T03:14:38.501Z,5.70
2023-05-19T03:19:42.504Z,7.20
2023-05-19T03:24:45.317Z,5.97
2023-05-19T03:29:48.067Z,9.40
2023-05-19T03:34:52.208Z,5.57
2023-05-19T03:39:55.329Z,6.37
2023-05-19T03:44:58.043Z,5.67
2023-05-19T03:50:02.225Z,4.43
2023-05-19T03:55:05.436Z,7.77
2023-05-19T04:00:11.176Z,5.83
2023-05-19T04:05:15.296Z,5.40
2023-05-19T04:10:18.005Z,8.07
2023-05-19T04:15:21.359Z,7.23
2023-05-19T04:20:25.563Z,3.57
2023-05-19T04:25:28.419Z,7.03
2023-05-19T04:30:31.477Z,6.87
2023-05-19T04:35:38.074Z,6.70
2023-05-19T04:40:42.531Z,11.17
2023-05-19T04:45:46.496Z,5.75
2023-05-19T04:50:51.902Z,9.82
2023-05-19T04:55:55.002Z,7.28
2023-05-19T05:00:57.801Z,6.93
2023-05-19T05:06:02.034Z,8.27
2023-05-19T05:11:05.392Z,5.75
2023-05-19T05:16:09.185Z,5.38
2023-05-19T05:21:14.094Z,7.00
2023-05-19T05:26:19.674Z,7.10
2023-05-19T05:31:22.418Z,5.07
2023-05-19T05:36:26.650Z,5.88
2023-05-19T05:41:35.021Z,5.10
2023-05-19T05:46:37.937Z,4.90
2023-05-19T05:51:46.413Z,13.10
2023-05-19T05:56:57.872Z,5.18
2023-05-19T06:02:00.733Z,6.13
2023-05-19T06:07:05.134Z,6.35
2023-05-19T06:12:08.262Z,4.95
2023-05-19T06:17:11.203Z,7.43
2023-05-19T06:22:15.257Z,4.68
2023-05-19T06:27:17.993Z,8.52
2023-05-19T06:32:20.762Z,4.50
2023-05-19T06:37:25.186Z,9.27
2023-05-19T06:42:28.035Z,4.95
2023-05-19T06:47:30.849Z,7.03
2023-05-19T06:52:34.923Z,6.15
2023-05-19T06:57:37.780Z,5.40
2023-05-19T07:02:40.751Z,5.45
2023-05-19T07:07:44.841Z,5.50
2023-05-19T07:12:47.541Z,5.68
2023-05-19T07:17:50.361Z,9.07
2023-05-19T07:22:54.383Z,5.80
2023-05-19T07:27:57.212Z,6.22
2023-05-19T07:33:02.481Z,4.90
2023-05-19T07:38:07.447Z,4.30
2023-05-19T07:43:11.327Z,5.68
2023-05-19T07:48:14.117Z,5.10
2023-05-19T07:53:18.296Z,4.65
2023-05-19T07:58:21.124Z,4.32
2023-05-19T08:03:24.130Z,8.60
2023-05-19T08:08:28.378Z,4.03
2023-05-19T08:13:31.348Z,4.60
2023-05-19T08:18:34.142Z,6.25
2023-05-19T08:23:38.716Z,8.75
2023-05-19T08:28:41.474Z,6.63
2023-05-19T08:33:44.172Z,11.57
2023-05-19T08:38:48.199Z,4.35
2023-05-19T08:43:50.985Z,7.75
2023-05-19T08:48:56.351Z,4.38
2023-05-19T08:54:10.282Z,3.88
2023-05-19T08:59:14.162Z,5.63
2023-05-19T09:04:17.881Z,4.53
2023-05-19T09:09:22.242Z,4.88
2023-05-19T09:14:24.993Z,5.57
2023-05-19T09:19:30.382Z,5.28
2023-05-19T09:24:35.956Z,6.47
2023-05-19T09:29:38.645Z,4.15
2023-05-19T09:34:42.694Z,4.78
2023-05-19T09:39:49.225Z,3.00
2023-05-19T09:44:52.113Z,5.32
2023-05-19T09:49:55.085Z,4.55
2023-05-19T09:55:00.238Z,4.85
2023-05-19T10:00:11.502Z,7.38
2023-05-19T10:05:17.567Z,4.13
2023-05-19T10:10:23.093Z,3.40
2023-05-19T10:15:27.576Z,3.65
2023-05-19T10:20:31.893Z,9.55
2023-05-19T10:25:37.991Z,6.90
2023-05-19T10:30:43.906Z,4.97
2023-05-19T10:36:14.494Z,5.05
2023-05-19T10:41:27.865Z,4.07
2023-05-19T10:46:31.792Z,3.38
2023-05-19T10:51:36.089Z,4.75
2023-05-19T10:56:42.473Z,4.68
2023-05-19T11:01:45.351Z,2.67
2023-05-19T11:06:53.573Z,4.60
2023-05-19T11:11:59.056Z,2.80
2023-05-19T11:17:01.877Z,4.00
2023-05-19T11:22:11.825Z,4.10
2023-05-19T11:27:26.550Z,4.18
2023-05-19T11:32:31.121Z,3.42
2023-05-19T11:37:34.653Z,2.53
2023-05-19T11:42:38.764Z,3.78
2023-05-19T11:47:51.990Z,9.07
2023-05-19T11:53:04.966Z,2.67
2023-05-19T11:58:09.359Z,6.45
2023-05-19T12:03:12.198Z,4.43
2023-05-19T12:08:15.347Z,2.97
2023-05-19T12:13:22.551Z,4.03
2023-05-19T12:18:30.501Z,8.38
2023-05-19T12:23:34.265Z,7.18
2023-05-19T12:28:38.548Z,3.00
2023-05-19T12:33:41.655Z,4.35
2023-05-19T12:38:44.585Z,3.22
2023-05-19T12:43:48.680Z,3.88
2023-05-19T12:48:51.705Z,5.13
2023-05-19T12:53:54.454Z,3.85
2023-05-19T12:58:58.620Z,6.72
2023-05-19T13:04:03.270Z,4.60
2023-05-19T13:09:07.409Z,3.50
2023-05-19T13:14:11.437Z,4.95
2023-05-19T13:19:24.813Z,3.78
2023-05-19T13:24:28.370Z,5.30
2023-05-19T13:29:32.420Z,5.55
2023-05-19T13:34:35.112Z,4.72
2023-05-19T13:39:38.150Z,5.28
2023-05-19T13:44:42.176Z,4.07
2023-05-19T13:49:44.901Z,3.50
2023-05-19T13:54:48.439Z,6.00
2023-05-19T14:00:01.590Z,4.50
2023-05-19T14:05:07.309Z,5.47
2023-05-19T14:10:11.068Z,4.35
2023-05-19T14:15:15.187Z,5.75
2023-05-19T14:20:18.062Z,6.50
2023-05-19T14:25:20.768Z,6.20
2023-05-19T14:30:24.824Z,4.45
2023-05-19T14:35:28.628Z,9.10
2023-05-19T14:40:31.597Z,5.28
2023-05-19T14:45:36.182Z,6.80
2023-05-19T14:50:38.940Z,4.47
2023-05-19T14:55:41.684Z,4.97
2023-05-19T15:00:46.046Z,5.43
2023-05-19T15:05:49.320Z,5.75
2023-05-19T15:10:52.261Z,8.02
2023-05-19T15:16:08.351Z,6.50
2023-05-19T15:21:18.814Z,6.78
2023-05-19T15:26:21.602Z,6.15
2023-05-19T15:31:25.672Z,6.30
2023-05-19T15:36:28.456Z,11.65
2023-05-19T15:41:31.170Z,6.93
2023-05-19T15:46:38.131Z,8.23
2023-05-19T15:51:41.813Z,7.40
2023-05-19T15:56:44.893Z,9.18
2023-05-19T16:01:50.571Z,8.75
2023-05-19T16:06:55.933Z,7.00
2023-05-19T16:11:59.258Z,8.65
2023-05-19T16:17:04.850Z,10.73
2023-05-19T16:22:09.223Z,6.10
2023-05-19T16:27:12.472Z,5.93
2023-05-19T16:32:16.925Z,4.90
2023-05-19T16:37:20.146Z,8.95
2023-05-19T16:48:26.583Z,11.20
2023-05-19T16:53:32.321Z,5.60
2023-05-19T16:58:35.174Z,7.85
2023-05-19T17:03:39.361Z,7.88
2023-05-19T17:08:42.151Z,6.97
2023-05-19T17:13:46.272Z,4.85
2023-05-19T17:18:50.444Z,6.40
2023-05-19T17:23:53.402Z,6.10
2023-05-19T17:28:56.315Z,6.22
2023-05-19T17:34:00.453Z,8.68
2023-05-19T17:39:03.631Z,5.63
2023-05-19T17:44:07.190Z,6.53
2023-05-19T17:49:12.992Z,5.95
2023-05-19T17:54:16.305Z,5.18
2023-05-19T17:59:19.716Z,5.68
2023-05-19T18:04:24.183Z,6.13
2023-05-19T18:09:31.159Z,6.28
2023-05-19T18:14:33.915Z,7.95
2023-05-19T18:19:37.971Z,8.60
2023-05-19T18:24:40.709Z,6.75
2023-05-19T18:29:46.824Z,6.85
2023-05-19T18:34:50.919Z,6.22
2023-05-19T18:39:53.588Z,7.15
2023-05-19T18:44:56.443Z,8.05
2023-05-19T18:50:00.534Z,9.35
2023-05-19T18:55:03.782Z,6.88
2023-05-19T19:00:07.915Z,7.13
2023-05-19T19:05:13.753Z,7.70
2023-05-19T19:10:16.830Z,8.68
2023-05-19T19:15:19.659Z,12.50
2023-05-19T19:20:23.725Z,11.65
2023-05-19T19:25:26.575Z,10.70
2023-05-19T19:30:30.411Z,9.68
2023-05-19T19:35:34.976Z,11.60
2023-05-19T19:40:40.733Z,14.82
2023-05-19T19:45:43.550Z,11.27
2023-05-19T19:50:52.814Z,12.90
2023-05-19T19:55:59.604Z,12.80
2023-05-19T20:01:04.304Z,12.13
2023-05-19T20:06:08.441Z,15.90
2023-05-19T20:11:15.549Z,16.85
2023-05-19T20:16:18.299Z,13.88
2023-05-19T20:21:22.378Z,13.93
2023-05-19T20:26:25.463Z,21.58
2023-05-19T20:31:28.248Z,14.60
2023-05-19T20:36:32.275Z,15.15
2023-05-19T20:41:35.006Z,18.73
2023-05-19T20:46:37.922Z,15.40
2023-05-19T20:51:42.144Z,13.88
2023-05-19T20:56:45.134Z,16.73
2023-05-19T21:01:48.063Z,15.52
2023-05-19T21:06:52.203Z,14.70
2023-05-19T21:11:54.957Z,11.88
2023-05-19T21:16:57.738Z,14.23
2023-05-19T21:22:02.130Z,14.75
2023-05-19T21:27:05.613Z,12.02
2023-05-19T21:32:08.838Z,15.85
2023-05-19T21:37:13.176Z,15.50
2023-05-19T21:42:15.926Z,13.05
2023-05-19T21:47:18.650Z,13.10
2023-05-19T21:52:22.942Z,13.63
2023-05-19T21:57:25.694Z,14.23
2023-05-19T22:02:28.629Z,13.82
2023-05-19T22:07:32.788Z,13.27
2023-05-19T22:12:35.488Z,15.82
2023-05-19T22:17:38.194Z,14.30
2023-05-19T22:22:42.362Z,14.20
2023-05-19T22:27:45.088Z,14.30
2023-05-19T22:32:47.981Z,14.90
2023-05-19T22:37:52.022Z,15.23
2023-05-19T22:42:54.824Z,15.07
2023-05-19T22:47:57.590Z,16.88
2023-05-19T22:53:01.744Z,15.75
2023-05-19T22:58:04.470Z,17.75
2023-05-19T23:03:07.192Z,15.48
2023-05-19T23:08:11.268Z,17.17
2023-05-19T23:13:14.014Z,21.13
2023-05-19T23:18:16.751Z,17.52
2023-05-19T23:23:20.858Z,17.35
2023-05-19T23:28:23.585Z,18.58
2023-05-19T23:33:26.510Z,19.50
2023-05-19T23:38:30.551Z,20.33
2023-05-19T23:43:33.550Z,21.95
2023-05-19T23:48:36.667Z,22.52
2023-05-19T23:53:40.810Z,26.58
2023-05-19T23:58:43.509Z,23.02
